sensor_id;sensor_type;location;lat;lon;timestamp;P1;durP1;ratioP1;P2;durP2;ratioP2
15624;SDS011;7912;51.376;6.126;2024-03-22T00:02:07;22.77;;;16.73;;
15624;SDS011;7912;51.376;6.126;2024-03-22T00:04:36;24.33;;;16.87;;
15624;SDS011;7912;51.376;6.126;2024-03-22T00:07:03;24.60;;;17.50;;
15624;SDS011;7912;51.376;6.126;2024-03-22T00:09:30;25.03;;;17.77;;
15624;SDS011;7912;51.376;6.126;2024-03-22T00:11:56;29.13;;;19.00;;
15624;SDS011;7912;51.376;6.126;2024-03-22T00:14:23;26.77;;;17.67;;
15624;SDS011;7912;51.376;6.126;2024-03-22T00:16:50;26.93;;;19.30;;
15624;SDS011;7912;51.376;6.126;2024-03-22T00:19:16;26.67;;;18.27;;
15624;SDS011;7912;51.376;6.126;2024-03-22T00:21:42;25.27;;;18.00;;
15624;SDS011;7912;51.376;6.126;2024-03-22T00:24:08;25.80;;;18.83;;
15624;SDS011;7912;51.376;6.126;2024-03-22T00:26:34;23.87;;;18.13;;
15624;SDS011;7912;51.376;6.126;2024-03-22T00:29:01;25.70;;;18.20;;
15624;SDS011;7912;51.376;6.126;2024-03-22T00:31:27;25.87;;;17.67;;
15624;SDS011;7912;51.376;6.126;2024-03-22T00:36:38;27.90;;;18.63;;
15624;SDS011;7912;51.376;6.126;2024-03-22T00:39:04;30.50;;;19.13;;
15624;SDS011;7912;51.376;6.126;2024-03-22T00:41:30;24.73;;;18.30;;
15624;SDS011;7912;51.376;6.126;2024-03-22T00:43:57;25.73;;;17.97;;
15624;SDS011;7912;51.376;6.126;2024-03-22T00:46:23;26.03;;;17.90;;
15624;SDS011;7912;51.376;6.126;2024-03-22T00:48:50;26.97;;;17.83;;
15624;SDS011;7912;51.376;6.126;2024-03-22T00:51:16;23.10;;;16.00;;
15624;SDS011;7912;51.376;6.126;2024-03-22T00:53:42;24.87;;;17.53;;
15624;SDS011;7912;51.376;6.126;2024-03-22T00:56:08;23.13;;;17.87;;
15624;SDS011;7912;51.376;6.126;2024-03-22T00:58:34;27.37;;;17.53;;
15624;SDS011;7912;51.376;6.126;2024-03-22T01:01:00;26.43;;;19.30;;
15624;SDS011;7912;51.376;6.126;2024-03-22T01:03:26;27.97;;;19.37;;
15624;SDS011;7912;51.376;6.126;2024-03-22T01:05:52;24.03;;;18.77;;
15624;SDS011;7912;51.376;6.126;2024-03-22T01:08:18;26.10;;;19.50;;
15624;SDS011;7912;51.376;6.126;2024-03-22T01:10:45;27.30;;;18.03;;
15624;SDS011;7912;51.376;6.126;2024-03-22T01:13:11;27.10;;;19.10;;
15624;SDS011;7912;51.376;6.126;2024-03-22T01:15:37;25.83;;;19.00;;
15624;SDS011;7912;51.376;6.126;2024-03-22T01:18:03;27.37;;;19.70;;
15624;SDS011;7912;51.376;6.126;2024-03-22T01:20:30;28.43;;;20.40;;
15624;SDS011;7912;51.376;6.126;2024-03-22T01:22:56;27.07;;;19.20;;
15624;SDS011;7912;51.376;6.126;2024-03-22T01:25:22;26.73;;;18.87;;
15624;SDS011;7912;51.376;6.126;2024-03-22T01:27:48;28.30;;;19.53;;
15624;SDS011;7912;51.376;6.126;2024-03-22T01:30:14;27.50;;;19.90;;
15624;SDS011;7912;51.376;6.126;2024-03-22T01:32:40;26.47;;;19.03;;
15624;SDS011;7912;51.376;6.126;2024-03-22T01:35:07;26.73;;;20.33;;
15624;SDS011;7912;51.376;6.126;2024-03-22T01:37:34;27.67;;;19.83;;
15624;SDS011;7912;51.376;6.126;2024-03-22T01:40:00;27.90;;;19.53;;
15624;SDS011;7912;51.376;6.126;2024-03-22T01:42:28;31.83;;;20.67;;
15624;SDS011;7912;51.376;6.126;2024-03-22T01:44:54;30.00;;;19.93;;
15624;SDS011;7912;51.376;6.126;2024-03-22T01:47:20;29.60;;;20.50;;
15624;SDS011;7912;51.376;6.126;2024-03-22T01:49:47;27.23;;;19.70;;
15624;SDS011;7912;51.376;6.126;2024-03-22T01:52:16;28.50;;;20.87;;
15624;SDS011;7912;51.376;6.126;2024-03-22T01:54:42;30.10;;;21.00;;
15624;SDS011;7912;51.376;6.126;2024-03-22T01:57:08;29.23;;;20.00;;
15624;SDS011;7912;51.376;6.126;2024-03-22T01:59:35;26.27;;;20.07;;
15624;SDS011;7912;51.376;6.126;2024-03-22T02:02:01;26.80;;;21.30;;
15624;SDS011;7912;51.376;6.126;2024-03-22T02:04:28;29.47;;;21.60;;
15624;SDS011;7912;51.376;6.126;2024-03-22T02:06:54;30.13;;;20.60;;
15624;SDS011;7912;51.376;6.126;2024-03-22T02:09:20;29.80;;;21.93;;
15624;SDS011;7912;51.376;6.126;2024-03-22T02:11:47;28.43;;;22.53;;
15624;SDS011;7912;51.376;6.126;2024-03-22T02:14:13;28.60;;;21.60;;
15624;SDS011;7912;51.376;6.126;2024-03-22T02:16:40;26.60;;;20.97;;
15624;SDS011;7912;51.376;6.126;2024-03-22T02:19:07;29.30;;;21.87;;
15624;SDS011;7912;51.376;6.126;2024-03-22T02:21:34;30.10;;;22.70;;
15624;SDS011;7912;51.376;6.126;2024-03-22T02:24:00;30.47;;;22.10;;
15624;SDS011;7912;51.376;6.126;2024-03-22T02:26:26;30.27;;;22.27;;
15624;SDS011;7912;51.376;6.126;2024-03-22T02:28:53;31.33;;;21.80;;
15624;SDS011;7912;51.376;6.126;2024-03-22T02:31:19;29.47;;;20.60;;
15624;SDS011;7912;51.376;6.126;2024-03-22T02:33:45;30.30;;;22.77;;
15624;SDS011;7912;51.376;6.126;2024-03-22T02:36:12;31.57;;;22.70;;
15624;SDS011;7912;51.376;6.126;2024-03-22T02:38:38;30.57;;;22.03;;
15624;SDS011;7912;51.376;6.126;2024-03-22T02:41:04;26.90;;;21.27;;
15624;SDS011;7912;51.376;6.126;2024-03-22T02:43:30;29.33;;;22.73;;
15624;SDS011;7912;51.376;6.126;2024-03-22T02:45:56;31.07;;;22.47;;
15624;SDS011;7912;51.376;6.126;2024-03-22T02:48:23;28.10;;;21.53;;
15624;SDS011;7912;51.376;6.126;2024-03-22T02:50:49;28.30;;;21.97;;
15624;SDS011;7912;51.376;6.126;2024-03-22T02:53:20;28.53;;;21.87;;
15624;SDS011;7912;51.376;6.126;2024-03-22T02:55:47;28.47;;;21.40;;
15624;SDS011;7912;51.376;6.126;2024-03-22T02:58:13;25.30;;;20.37;;
15624;SDS011;7912;51.376;6.126;2024-03-22T03:00:39;29.10;;;21.37;;
15624;SDS011;7912;51.376;6.126;2024-03-22T03:03:05;29.47;;;21.73;;
15624;SDS011;7912;51.376;6.126;2024-03-22T03:05:32;29.60;;;22.10;;
15624;SDS011;7912;51.376;6.126;2024-03-22T03:07:58;28.10;;;20.83;;
15624;SDS011;7912;51.376;6.126;2024-03-22T03:10:24;29.17;;;22.40;;
15624;SDS011;7912;51.376;6.126;2024-03-22T03:12:54;29.70;;;22.17;;
15624;SDS011;7912;51.376;6.126;2024-03-22T03:15:20;27.97;;;21.43;;
15624;SDS011;7912;51.376;6.126;2024-03-22T03:17:47;28.60;;;22.70;;
15624;SDS011;7912;51.376;6.126;2024-03-22T03:20:13;28.67;;;21.57;;
15624;SDS011;7912;51.376;6.126;2024-03-22T03:22:40;25.93;;;21.13;;
15624;SDS011;7912;51.376;6.126;2024-03-22T03:25:06;27.77;;;20.97;;
15624;SDS011;7912;51.376;6.126;2024-03-22T03:27:33;29.00;;;20.87;;
15624;SDS011;7912;51.376;6.126;2024-03-22T03:30:00;27.20;;;20.53;;
15624;SDS011;7912;51.376;6.126;2024-03-22T03:32:27;28.90;;;21.10;;
15624;SDS011;7912;51.376;6.126;2024-03-22T03:34:54;27.63;;;21.40;;
15624;SDS011;7912;51.376;6.126;2024-03-22T03:37:20;26.00;;;19.57;;
15624;SDS011;7912;51.376;6.126;2024-03-22T03:39:46;27.70;;;20.03;;
15624;SDS011;7912;51.376;6.126;2024-03-22T03:42:13;24.03;;;19.47;;
15624;SDS011;7912;51.376;6.126;2024-03-22T03:44:39;25.67;;;20.67;;
15624;SDS011;7912;51.376;6.126;2024-03-22T03:47:06;25.93;;;20.23;;
15624;SDS011;7912;51.376;6.126;2024-03-22T03:49:34;27.30;;;20.93;;
15624;SDS011;7912;51.376;6.126;2024-03-22T03:52:00;27.20;;;20.43;;
15624;SDS011;7912;51.376;6.126;2024-03-22T03:54:26;27.70;;;21.17;;
15624;SDS011;7912;51.376;6.126;2024-03-22T03:56:53;26.03;;;19.63;;
15624;SDS011;7912;51.376;6.126;2024-03-22T03:59:19;25.83;;;20.30;;
15624;SDS011;7912;51.376;6.126;2024-03-22T04:01:45;26.30;;;20.07;;
15624;SDS011;7912;51.376;6.126;2024-03-22T04:04:12;23.70;;;18.77;;
15624;SDS011;7912;51.376;6.126;2024-03-22T04:06:38;26.97;;;19.60;;
15624;SDS011;7912;51.376;6.126;2024-03-22T04:09:04;24.20;;;19.83;;
15624;SDS011;7912;51.376;6.126;2024-03-22T04:11:30;24.37;;;18.30;;
15624;SDS011;7912;51.376;6.126;2024-03-22T04:13:57;23.70;;;19.10;;
15624;SDS011;7912;51.376;6.126;2024-03-22T04:16:23;24.17;;;18.70;;
15624;SDS011;7912;51.376;6.126;2024-03-22T04:18:49;24.67;;;19.33;;
15624;SDS011;7912;51.376;6.126;2024-03-22T04:21:15;27.13;;;20.30;;
15624;SDS011;7912;51.376;6.126;2024-03-22T04:23:42;26.60;;;20.17;;
15624;SDS011;7912;51.376;6.126;2024-03-22T04:26:08;26.00;;;18.13;;
15624;SDS011;7912;51.376;6.126;2024-03-22T04:28:34;24.93;;;18.67;;
15624;SDS011;7912;51.376;6.126;2024-03-22T04:31:02;25.63;;;19.47;;
15624;SDS011;7912;51.376;6.126;2024-03-22T04:33:30;24.17;;;20.10;;
15624;SDS011;7912;51.376;6.126;2024-03-22T04:35:58;23.13;;;18.70;;
15624;SDS011;7912;51.376;6.126;2024-03-22T04:38:26;24.43;;;18.77;;
15624;SDS011;7912;51.376;6.126;2024-03-22T04:40:53;23.60;;;19.07;;
15624;SDS011;7912;51.376;6.126;2024-03-22T04:43:22;25.40;;;19.33;;
15624;SDS011;7912;51.376;6.126;2024-03-22T04:45:50;23.33;;;18.17;;
15624;SDS011;7912;51.376;6.126;2024-03-22T04:48:17;23.83;;;18.67;;
15624;SDS011;7912;51.376;6.126;2024-03-22T04:50:46;23.50;;;18.43;;
15624;SDS011;7912;51.376;6.126;2024-03-22T04:53:16;23.73;;;18.67;;
15624;SDS011;7912;51.376;6.126;2024-03-22T04:55:43;25.37;;;19.07;;
15624;SDS011;7912;51.376;6.126;2024-03-22T04:58:12;24.77;;;19.87;;
15624;SDS011;7912;51.376;6.126;2024-03-22T05:00:40;25.10;;;19.73;;
15624;SDS011;7912;51.376;6.126;2024-03-22T05:03:07;26.10;;;18.77;;
15624;SDS011;7912;51.376;6.126;2024-03-22T05:05:33;24.70;;;19.00;;
15624;SDS011;7912;51.376;6.126;2024-03-22T05:08:00;23.53;;;18.10;;
15624;SDS011;7912;51.376;6.126;2024-03-22T05:10:28;25.53;;;17.97;;
15624;SDS011;7912;51.376;6.126;2024-03-22T05:12:58;23.73;;;18.30;;
15624;SDS011;7912;51.376;6.126;2024-03-22T05:15:25;23.00;;;17.10;;
15624;SDS011;7912;51.376;6.126;2024-03-22T05:17:52;23.47;;;19.03;;
15624;SDS011;7912;51.376;6.126;2024-03-22T05:20:19;22.83;;;18.33;;
15624;SDS011;7912;51.376;6.126;2024-03-22T05:22:46;26.03;;;17.77;;
15624;SDS011;7912;51.376;6.126;2024-03-22T05:25:13;23.40;;;18.40;;
15624;SDS011;7912;51.376;6.126;2024-03-22T05:27:44;24.80;;;19.00;;
15624;SDS011;7912;51.376;6.126;2024-03-22T05:30:11;23.23;;;17.97;;
15624;SDS011;7912;51.376;6.126;2024-03-22T05:32:41;23.53;;;18.43;;
15624;SDS011;7912;51.376;6.126;2024-03-22T05:35:07;25.03;;;18.30;;
15624;SDS011;7912;51.376;6.126;2024-03-22T05:37:34;21.03;;;18.00;;
15624;SDS011;7912;51.376;6.126;2024-03-22T05:40:01;22.50;;;18.97;;
15624;SDS011;7912;51.376;6.126;2024-03-22T05:42:30;21.33;;;16.97;;
15624;SDS011;7912;51.376;6.126;2024-03-22T05:44:56;22.10;;;17.57;;
15624;SDS011;7912;51.376;6.126;2024-03-22T05:47:22;24.77;;;17.67;;
15624;SDS011;7912;51.376;6.126;2024-03-22T05:49:48;23.07;;;17.73;;
15624;SDS011;7912;51.376;6.126;2024-03-22T05:52:14;24.07;;;18.43;;
15624;SDS011;7912;51.376;6.126;2024-03-22T05:54:41;21.03;;;17.17;;
15624;SDS011;7912;51.376;6.126;2024-03-22T05:57:07;22.93;;;17.03;;
15624;SDS011;7912;51.376;6.126;2024-03-22T05:59:33;20.00;;;16.83;;
15624;SDS011;7912;51.376;6.126;2024-03-22T06:02:00;20.50;;;16.30;;
15624;SDS011;7912;51.376;6.126;2024-03-22T06:04:27;21.27;;;16.53;;
15624;SDS011;7912;51.376;6.126;2024-03-22T06:09:40;22.87;;;16.60;;
15624;SDS011;7912;51.376;6.126;2024-03-22T06:12:12;22.73;;;17.43;;
15624;SDS011;7912;51.376;6.126;2024-03-22T06:14:39;20.07;;;16.03;;
15624;SDS011;7912;51.376;6.126;2024-03-22T06:17:08;22.70;;;16.87;;
15624;SDS011;7912;51.376;6.126;2024-03-22T06:19:34;21.90;;;16.43;;
15624;SDS011;7912;51.376;6.126;2024-03-22T06:22:01;22.33;;;17.13;;
15624;SDS011;7912;51.376;6.126;2024-03-22T06:24:28;22.23;;;16.50;;
15624;SDS011;7912;51.376;6.126;2024-03-22T06:26:55;22.20;;;16.60;;
15624;SDS011;7912;51.376;6.126;2024-03-22T06:29:21;20.17;;;16.87;;
15624;SDS011;7912;51.376;6.126;2024-03-22T06:31:47;19.97;;;15.63;;
15624;SDS011;7912;51.376;6.126;2024-03-22T06:34:15;22.77;;;16.97;;
15624;SDS011;7912;51.376;6.126;2024-03-22T06:36:41;19.87;;;15.47;;
15624;SDS011;7912;51.376;6.126;2024-03-22T06:39:08;20.27;;;16.37;;
15624;SDS011;7912;51.376;6.126;2024-03-22T06:41:35;22.43;;;16.63;;
15624;SDS011;7912;51.376;6.126;2024-03-22T06:44:03;19.70;;;16.10;;
15624;SDS011;7912;51.376;6.126;2024-03-22T06:46:30;23.13;;;17.47;;
15624;SDS011;7912;51.376;6.126;2024-03-22T06:48:57;20.33;;;16.13;;
15624;SDS011;7912;51.376;6.126;2024-03-22T06:51:23;23.73;;;17.90;;
15624;SDS011;7912;51.376;6.126;2024-03-22T06:53:50;19.30;;;16.00;;
15624;SDS011;7912;51.376;6.126;2024-03-22T06:56:16;20.60;;;16.07;;
15624;SDS011;7912;51.376;6.126;2024-03-22T06:58:43;19.87;;;16.37;;
15624;SDS011;7912;51.376;6.126;2024-03-22T07:01:10;20.50;;;15.93;;
15624;SDS011;7912;51.376;6.126;2024-03-22T07:03:36;21.13;;;15.63;;
15624;SDS011;7912;51.376;6.126;2024-03-22T07:06:02;18.87;;;14.77;;
15624;SDS011;7912;51.376;6.126;2024-03-22T07:08:29;18.27;;;15.27;;
15624;SDS011;7912;51.376;6.126;2024-03-22T07:10:56;19.20;;;14.83;;
15624;SDS011;7912;51.376;6.126;2024-03-22T07:13:22;20.60;;;15.23;;
15624;SDS011;7912;51.376;6.126;2024-03-22T07:15:48;17.63;;;14.63;;
15624;SDS011;7912;51.376;6.126;2024-03-22T07:18:14;17.57;;;13.87;;
15624;SDS011;7912;51.376;6.126;2024-03-22T07:20:41;18.37;;;14.90;;
15624;SDS011;7912;51.376;6.126;2024-03-22T07:23:08;18.00;;;14.27;;
15624;SDS011;7912;51.376;6.126;2024-03-22T07:25:34;16.67;;;14.03;;
15624;SDS011;7912;51.376;6.126;2024-03-22T07:28:00;18.73;;;14.73;;
15624;SDS011;7912;51.376;6.126;2024-03-22T07:30:27;18.10;;;14.73;;
15624;SDS011;7912;51.376;6.126;2024-03-22T07:32:53;17.57;;;14.80;;
15624;SDS011;7912;51.376;6.126;2024-03-22T07:35:19;16.87;;;14.57;;
15624;SDS011;7912;51.376;6.126;2024-03-22T07:40:49;18.40;;;13.80;;
15624;SDS011;7912;51.376;6.126;2024-03-22T07:43:15;16.23;;;13.97;;
15624;SDS011;7912;51.376;6.126;2024-03-22T07:45:42;15.60;;;13.23;;
15624;SDS011;7912;51.376;6.126;2024-03-22T07:48:08;15.67;;;12.50;;
15624;SDS011;7912;51.376;6.126;2024-03-22T07:50:35;14.97;;;12.10;;
15624;SDS011;7912;51.376;6.126;2024-03-22T07:53:01;16.27;;;12.67;;
15624;SDS011;7912;51.376;6.126;2024-03-22T07:55:30;15.47;;;12.03;;
15624;SDS011;7912;51.376;6.126;2024-03-22T07:57:56;16.53;;;12.40;;
15624;SDS011;7912;51.376;6.126;2024-03-22T08:00:23;14.70;;;12.33;;
15624;SDS011;7912;51.376;6.126;2024-03-22T08:02:52;13.57;;;11.27;;
15624;SDS011;7912;51.376;6.126;2024-03-22T08:08:04;14.07;;;12.03;;
15624;SDS011;7912;51.376;6.126;2024-03-22T08:10:31;14.00;;;11.43;;
15624;SDS011;7912;51.376;6.126;2024-03-22T08:12:57;15.73;;;12.30;;
15624;SDS011;7912;51.376;6.126;2024-03-22T08:15:23;14.50;;;11.90;;
15624;SDS011;7912;51.376;6.126;2024-03-22T08:17:50;13.37;;;11.63;;
15624;SDS011;7912;51.376;6.126;2024-03-22T08:20:16;14.67;;;11.93;;
15624;SDS011;7912;51.376;6.126;2024-03-22T08:22:43;14.10;;;11.03;;
15624;SDS011;7912;51.376;6.126;2024-03-22T08:25:09;14.10;;;11.30;;
15624;SDS011;7912;51.376;6.126;2024-03-22T08:27:35;15.00;;;10.97;;
15624;SDS011;7912;51.376;6.126;2024-03-22T08:30:01;14.33;;;11.83;;
15624;SDS011;7912;51.376;6.126;2024-03-22T08:32:29;13.17;;;10.60;;
15624;SDS011;7912;51.376;6.126;2024-03-22T08:34:55;13.93;;;10.80;;
15624;SDS011;7912;51.376;6.126;2024-03-22T08:37:21;12.07;;;10.37;;
15624;SDS011;7912;51.376;6.126;2024-03-22T08:39:48;12.43;;;10.40;;
15624;SDS011;7912;51.376;6.126;2024-03-22T08:42:14;13.33;;;10.70;;
15624;SDS011;7912;51.376;6.126;2024-03-22T08:44:40;14.47;;;10.90;;
15624;SDS011;7912;51.376;6.126;2024-03-22T08:47:06;14.93;;;11.00;;
15624;SDS011;7912;51.376;6.126;2024-03-22T08:49:33;12.90;;;10.47;;
15624;SDS011;7912;51.376;6.126;2024-03-22T08:52:01;12.30;;;10.77;;
15624;SDS011;7912;51.376;6.126;2024-03-22T08:54:28;12.13;;;10.07;;
15624;SDS011;7912;51.376;6.126;2024-03-22T08:56:54;11.17;;;9.67;;
15624;SDS011;7912;51.376;6.126;2024-03-22T08:59:20;12.47;;;10.07;;
15624;SDS011;7912;51.376;6.126;2024-03-22T09:01:46;11.10;;;9.90;;
15624;SDS011;7912;51.376;6.126;2024-03-22T09:04:13;11.40;;;10.23;;
15624;SDS011;7912;51.376;6.126;2024-03-22T09:06:41;12.53;;;10.13;;
15624;SDS011;7912;51.376;6.126;2024-03-22T09:09:07;10.97;;;9.33;;
15624;SDS011;7912;51.376;6.126;2024-03-22T09:11:34;10.50;;;9.20;;
15624;SDS011;7912;51.376;6.126;2024-03-22T09:14:01;11.80;;;10.10;;
15624;SDS011;7912;51.376;6.126;2024-03-22T09:16:27;11.60;;;10.40;;
15624;SDS011;7912;51.376;6.126;2024-03-22T09:18:53;12.47;;;10.87;;
15624;SDS011;7912;51.376;6.126;2024-03-22T09:21:19;11.83;;;10.50;;
15624;SDS011;7912;51.376;6.126;2024-03-22T09:23:46;12.23;;;10.50;;
15624;SDS011;7912;51.376;6.126;2024-03-22T09:26:12;11.47;;;10.20;;
15624;SDS011;7912;51.376;6.126;2024-03-22T09:28:40;10.97;;;9.87;;
15624;SDS011;7912;51.376;6.126;2024-03-22T09:31:07;12.57;;;10.40;;
15624;SDS011;7912;51.376;6.126;2024-03-22T09:33:36;12.77;;;10.20;;
15624;SDS011;7912;51.376;6.126;2024-03-22T09:36:03;12.73;;;10.37;;
15624;SDS011;7912;51.376;6.126;2024-03-22T09:38:29;10.40;;;9.27;;
15624;SDS011;7912;51.376;6.126;2024-03-22T09:40:56;12.27;;;10.47;;
15624;SDS011;7912;51.376;6.126;2024-03-22T09:43:22;11.17;;;9.93;;
15624;SDS011;7912;51.376;6.126;2024-03-22T09:45:49;11.40;;;10.20;;
15624;SDS011;7912;51.376;6.126;2024-03-22T09:48:17;10.70;;;9.57;;
15624;SDS011;7912;51.376;6.126;2024-03-22T09:50:47;10.57;;;9.33;;
15624;SDS011;7912;51.376;6.126;2024-03-22T09:53:18;10.57;;;9.47;;
15624;SDS011;7912;51.376;6.126;2024-03-22T09:55:47;11.30;;;9.43;;
15624;SDS011;7912;51.376;6.126;2024-03-22T09:58:15;10.47;;;9.37;;
15624;SDS011;7912;51.376;6.126;2024-03-22T10:00:44;10.93;;;9.83;;
15624;SDS011;7912;51.376;6.126;2024-03-22T10:03:12;10.67;;;9.30;;
15624;SDS011;7912;51.376;6.126;2024-03-22T10:05:38;10.67;;;9.50;;
15624;SDS011;7912;51.376;6.126;2024-03-22T10:08:04;11.60;;;9.63;;
15624;SDS011;7912;51.376;6.126;2024-03-22T10:10:31;10.53;;;9.43;;
15624;SDS011;7912;51.376;6.126;2024-03-22T10:13:02;12.10;;;9.60;;
15624;SDS011;7912;51.376;6.126;2024-03-22T10:15:32;10.43;;;9.33;;
15624;SDS011;7912;51.376;6.126;2024-03-22T10:17:58;10.63;;;9.33;;
15624;SDS011;7912;51.376;6.126;2024-03-22T10:20:25;10.87;;;9.67;;
15624;SDS011;7912;51.376;6.126;2024-03-22T10:22:58;10.53;;;9.47;;
15624;SDS011;7912;51.376;6.126;2024-03-22T10:25:25;10.70;;;9.60;;
15624;SDS011;7912;51.376;6.126;2024-03-22T10:27:55;10.37;;;9.20;;
15624;SDS011;7912;51.376;6.126;2024-03-22T10:30:23;9.77;;;8.77;;
15624;SDS011;7912;51.376;6.126;2024-03-22T10:32:50;9.43;;;8.50;;
15624;SDS011;7912;51.376;6.126;2024-03-22T10:35:17;9.23;;;8.27;;
15624;SDS011;7912;51.376;6.126;2024-03-22T10:37:44;8.80;;;7.90;;
15624;SDS011;7912;51.376;6.126;2024-03-22T10:40:10;8.70;;;7.80;;
15624;SDS011;7912;51.376;6.126;2024-03-22T10:42:38;9.03;;;8.10;;
15624;SDS011;7912;51.376;6.126;2024-03-22T10:45:06;9.77;;;8.77;;
15624;SDS011;7912;51.376;6.126;2024-03-22T10:47:35;9.27;;;8.40;;
15624;SDS011;7912;51.376;6.126;2024-03-22T10:50:07;9.33;;;8.43;;
15624;SDS011;7912;51.376;6.126;2024-03-22T10:55:24;11.17;;;9.17;;
15624;SDS011;7912;51.376;6.126;2024-03-22T10:57:59;10.40;;;9.20;;
15624;SDS011;7912;51.376;6.126;2024-03-22T11:03:03;8.73;;;7.87;;
15624;SDS011;7912;51.376;6.126;2024-03-22T11:05:30;9.50;;;8.50;;
15624;SDS011;7912;51.376;6.126;2024-03-22T11:08:00;9.50;;;8.53;;
15624;SDS011;7912;51.376;6.126;2024-03-22T11:10:30;8.80;;;7.93;;
15624;SDS011;7912;51.376;6.126;2024-03-22T11:13:02;9.07;;;8.13;;
15624;SDS011;7912;51.376;6.126;2024-03-22T11:15:30;8.87;;;7.87;;
15624;SDS011;7912;51.376;6.126;2024-03-22T11:18:00;9.33;;;8.40;;
15624;SDS011;7912;51.376;6.126;2024-03-22T11:20:27;9.10;;;8.20;;
15624;SDS011;7912;51.376;6.126;2024-03-22T11:22:55;10.87;;;8.70;;
15624;SDS011;7912;51.376;6.126;2024-03-22T11:25:22;9.10;;;8.20;;
15624;SDS011;7912;51.376;6.126;2024-03-22T11:27:48;9.40;;;8.30;;
15624;SDS011;7912;51.376;6.126;2024-03-22T11:30:15;9.03;;;8.13;;
15624;SDS011;7912;51.376;6.126;2024-03-22T11:32:42;9.20;;;8.30;;
15624;SDS011;7912;51.376;6.126;2024-03-22T11:35:11;8.53;;;7.73;;
15624;SDS011;7912;51.376;6.126;2024-03-22T11:37:39;9.50;;;8.50;;
15624;SDS011;7912;51.376;6.126;2024-03-22T11:40:08;9.37;;;8.47;;
15624;SDS011;7912;51.376;6.126;2024-03-22T11:42:36;8.63;;;7.80;;
15624;SDS011;7912;51.376;6.126;2024-03-22T11:45:11;9.77;;;8.77;;
15624;SDS011;7912;51.376;6.126;2024-03-22T11:47:43;9.20;;;8.23;;
15624;SDS011;7912;51.376;6.126;2024-03-22T11:50:14;9.77;;;8.80;;
15624;SDS011;7912;51.376;6.126;2024-03-22T11:52:41;10.07;;;8.97;;
15624;SDS011;7912;51.376;6.126;2024-03-22T11:55:10;9.50;;;8.50;;
15624;SDS011;7912;51.376;6.126;2024-03-22T11:57:36;9.90;;;8.93;;
15624;SDS011;7912;51.376;6.126;2024-03-22T12:00:03;10.43;;;9.33;;
15624;SDS011;7912;51.376;6.126;2024-03-22T12:02:37;10.10;;;8.73;;
15624;SDS011;7912;51.376;6.126;2024-03-22T12:05:04;9.93;;;8.93;;
15624;SDS011;7912;51.376;6.126;2024-03-22T12:07:31;10.13;;;8.77;;
15624;SDS011;7912;51.376;6.126;2024-03-22T12:09:58;10.27;;;9.17;;
15624;SDS011;7912;51.376;6.126;2024-03-22T12:12:24;10.63;;;9.57;;
15624;SDS011;7912;51.376;6.126;2024-03-22T12:14:52;11.13;;;10.07;;
15624;SDS011;7912;51.376;6.126;2024-03-22T12:17:18;11.50;;;10.23;;
15624;SDS011;7912;51.376;6.126;2024-03-22T12:19:45;10.63;;;9.50;;
15624;SDS011;7912;51.376;6.126;2024-03-22T12:22:11;10.53;;;9.53;;
15624;SDS011;7912;51.376;6.126;2024-03-22T12:24:37;10.37;;;9.30;;
15624;SDS011;7912;51.376;6.126;2024-03-22T12:27:04;11.37;;;10.23;;
15624;SDS011;7912;51.376;6.126;2024-03-22T12:29:34;12.27;;;10.50;;
15624;SDS011;7912;51.376;6.126;2024-03-22T12:32:04;11.10;;;9.87;;
15624;SDS011;7912;51.376;6.126;2024-03-22T12:34:32;10.30;;;9.23;;
15624;SDS011;7912;51.376;6.126;2024-03-22T12:37:02;10.57;;;9.17;;
15624;SDS011;7912;51.376;6.126;2024-03-22T12:39:28;11.20;;;9.57;;
15624;SDS011;7912;51.376;6.126;2024-03-22T12:41:55;10.53;;;9.50;;
15624;SDS011;7912;51.376;6.126;2024-03-22T12:44:21;10.20;;;9.17;;
15624;SDS011;7912;51.376;6.126;2024-03-22T12:46:47;10.60;;;9.30;;
15624;SDS011;7912;51.376;6.126;2024-03-22T12:49:16;11.07;;;9.30;;
15624;SDS011;7912;51.376;6.126;2024-03-22T12:51:43;11.60;;;9.63;;
15624;SDS011;7912;51.376;6.126;2024-03-22T12:54:09;11.10;;;9.47;;
15624;SDS011;7912;51.376;6.126;2024-03-22T12:56:35;10.17;;;9.10;;
15624;SDS011;7912;51.376;6.126;2024-03-22T12:59:04;10.53;;;9.50;;
15624;SDS011;7912;51.376;6.126;2024-03-22T13:01:31;11.40;;;10.20;;
15624;SDS011;7912;51.376;6.126;2024-03-22T13:03:57;11.57;;;10.20;;
15624;SDS011;7912;51.376;6.126;2024-03-22T13:06:26;11.50;;;10.30;;
15624;SDS011;7912;51.376;6.126;2024-03-22T13:08:52;11.90;;;10.50;;
15624;SDS011;7912;51.376;6.126;2024-03-22T13:11:18;10.90;;;9.80;;
15624;SDS011;7912;51.376;6.126;2024-03-22T13:13:44;11.77;;;10.17;;
15624;SDS011;7912;51.376;6.126;2024-03-22T13:18:58;11.93;;;10.83;;
15624;SDS011;7912;51.376;6.126;2024-03-22T13:21:24;11.87;;;10.47;;
15624;SDS011;7912;51.376;6.126;2024-03-22T13:23:50;14.13;;;10.50;;
15624;SDS011;7912;51.376;6.126;2024-03-22T13:26:17;12.77;;;10.73;;
15624;SDS011;7912;51.376;6.126;2024-03-22T13:28:43;11.23;;;10.00;;
15624;SDS011;7912;51.376;6.126;2024-03-22T13:31:10;11.63;;;10.43;;
15624;SDS011;7912;51.376;6.126;2024-03-22T13:33:36;12.27;;;10.73;;
15624;SDS011;7912;51.376;6.126;2024-03-22T13:36:02;11.17;;;10.03;;
15624;SDS011;7912;51.376;6.126;2024-03-22T13:38:30;12.07;;;10.83;;
15624;SDS011;7912;51.376;6.126;2024-03-22T13:40:57;11.43;;;10.37;;
15624;SDS011;7912;51.376;6.126;2024-03-22T13:43:28;12.90;;;10.23;;
15624;SDS011;7912;51.376;6.126;2024-03-22T13:45:55;12.60;;;11.30;;
15624;SDS011;7912;51.376;6.126;2024-03-22T13:48:24;11.87;;;10.03;;
15624;SDS011;7912;51.376;6.126;2024-03-22T13:50:54;11.17;;;10.07;;
15624;SDS011;7912;51.376;6.126;2024-03-22T13:53:20;11.20;;;10.10;;
15624;SDS011;7912;51.376;6.126;2024-03-22T13:55:50;11.20;;;9.90;;
15624;SDS011;7912;51.376;6.126;2024-03-22T13:58:20;11.37;;;10.17;;
15624;SDS011;7912;51.376;6.126;2024-03-22T14:00:46;11.40;;;10.00;;
15624;SDS011;7912;51.376;6.126;2024-03-22T14:03:13;11.87;;;10.53;;
15624;SDS011;7912;51.376;6.126;2024-03-22T14:05:42;11.37;;;9.43;;
15624;SDS011;7912;51.376;6.126;2024-03-22T14:08:08;13.50;;;10.17;;
15624;SDS011;7912;51.376;6.126;2024-03-22T14:10:34;12.83;;;10.03;;
15624;SDS011;7912;51.376;6.126;2024-03-22T14:13:01;13.47;;;10.33;;
15624;SDS011;7912;51.376;6.126;2024-03-22T14:15:28;11.23;;;9.70;;
15624;SDS011;7912;51.376;6.126;2024-03-22T14:17:57;12.37;;;10.83;;
15624;SDS011;7912;51.376;6.126;2024-03-22T14:20:24;11.03;;;9.93;;
15624;SDS011;7912;51.376;6.126;2024-03-22T14:22:50;13.03;;;11.53;;
15624;SDS011;7912;51.376;6.126;2024-03-22T14:25:17;13.63;;;12.27;;
15624;SDS011;7912;51.376;6.126;2024-03-22T14:27:43;13.73;;;12.37;;
15624;SDS011;7912;51.376;6.126;2024-03-22T14:30:11;13.73;;;12.33;;
15624;SDS011;7912;51.376;6.126;2024-03-22T14:32:40;14.23;;;12.63;;
15624;SDS011;7912;51.376;6.126;2024-03-22T14:35:07;17.30;;;13.47;;
15624;SDS011;7912;51.376;6.126;2024-03-22T14:37:37;13.93;;;12.43;;
15624;SDS011;7912;51.376;6.126;2024-03-22T14:40:03;13.80;;;12.40;;
15624;SDS011;7912;51.376;6.126;2024-03-22T14:42:31;14.13;;;12.17;;
15624;SDS011;7912;51.376;6.126;2024-03-22T14:44:57;14.90;;;13.37;;
15624;SDS011;7912;51.376;6.126;2024-03-22T14:47:28;13.90;;;12.13;;
15624;SDS011;7912;51.376;6.126;2024-03-22T14:49:54;15.13;;;12.80;;
15624;SDS011;7912;51.376;6.126;2024-03-22T14:52:20;15.33;;;13.07;;
15624;SDS011;7912;51.376;6.126;2024-03-22T14:54:47;14.07;;;12.57;;
15624;SDS011;7912;51.376;6.126;2024-03-22T14:57:14;15.37;;;13.77;;